Time;durP1;ratioP1;P1;durP2;ratioP2;P2;SDS_P1;SDS_P2;PMS_P1;PMS_P2;Temp;Humidity;BMP_temperature;BMP_pressure;BME280_temperature;BME280_humidity;BME280_pressure;Samples;Min_cycle;Max_cycle;Signal;HPM_P1;HPM_P2
2023/09/21 00:01:23;;;;;;;2.70;1.23;;;20.10;99.90;;;;;;5073756;28;20378;-36
2023/09/21 00:03:49;;;;;;;3.20;1.15;;;20.10;99.90;;;;;;5073740;28;20108;-37
2023/09/21 00:06:17;;;;;;;5.32;1.02;;;20.10;99.90;;;;;;5073683;28;20099;-38
2023/09/21 00:08:47;;;;;;;4.75;1.73;;;20.00;99.90;;;;;;5073663;28;20029;-37
2023/09/21 00:11:14;;;;;;;5.18;1.40;;;20.10;99.90;;;;;;5073576;28;20553;-37
2023/09/21 00:13:40;;;;;;;2.00;0.87;;;20.10;99.90;;;;;;5073606;28;20025;-36
2023/09/21 00:16:12;;;;;;;2.30;1.45;;;20.10;99.90;;;;;;5073446;28;20545;-36
2023/09/21 00:18:44;;;;;;;1.30;1.20;;;20.00;99.90;;;;;;5073806;28;20031;-36
2023/09/21 00:21:12;;;;;;;1.50;1.00;;;20.10;99.90;;;;;;5073540;28;20416;-37
2023/09/21 00:23:38;;;;;;;2.60;1.30;;;20.20;99.90;;;;;;5073388;28;20048;-37
2023/09/21 00:26:04;;;;;;;1.35;1.20;;;20.20;99.90;;;;;;5073259;28;20082;-36
2023/09/21 00:28:30;;;;;;;2.15;1.10;;;20.10;99.90;;;;;;5073252;28;20032;-36
2023/09/21 00:31:02;;;;;;;5.00;1.27;;;20.10;99.90;;;;;;5073237;28;20115;-35
2023/09/21 00:33:30;;;;;;;5.57;1.75;;;20.10;99.90;;;;;;5073246;28;20035;-36
2023/09/21 00:35:59;;;;;;;2.03;1.55;;;20.10;99.90;;;;;;5073109;28;20032;-36
2023/09/21 00:38:26;;;;;;;6.28;0.98;;;20.10;99.90;;;;;;5073173;28;20033;-37
2023/09/21 00:41:00;;;;;;;1.23;1.13;;;20.10;99.90;;;;;;5073079;28;20366;-36
2023/09/21 00:43:28;;;;;;;5.57;1.42;;;20.10;99.90;;;;;;5073119;28;20694;-36
2023/09/21 00:45:57;;;;;;;2.45;1.45;;;20.10;99.90;;;;;;5073295;28;20491;-36
2023/09/21 00:48:33;;;;;;;2.92;1.00;;;20.00;99.90;;;;;;5073331;28;20025;-36
2023/09/21 00:51:17;;;;;;;1.13;1.03;;;20.00;99.90;;;;;;5072910;28;20028;-36
2023/09/21 00:53:45;;;;;;;1.33;1.23;;;20.10;99.90;;;;;;5072934;28;20444;-36
2023/09/21 00:56:12;;;;;;;5.78;1.25;;;20.10;99.90;;;;;;5071953;28;20024;-36
2023/09/21 00:58:42;;;;;;;;;;;20.10;99.90;;;;;;5073608;28;20362;-37
2023/09/21 01:01:16;;;;;;;2.28;0.98;;;20.10;99.90;;;;;;5073087;28;19923;-36
2023/09/21 01:03:43;;;;;;;2.08;0.90;;;20.10;99.90;;;;;;5072372;28;20024;-36
2023/09/21 01:06:10;;;;;;;3.78;1.40;;;20.20;99.90;;;;;;5072173;28;20032;-36
2023/09/21 01:08:37;;;;;;;1.48;1.02;;;20.20;99.90;;;;;;5072730;28;20016;-36
2023/09/21 01:11:10;;;;;;;2.42;1.20;;;20.20;99.90;;;;;;5071490;28;20028;-51
2023/09/21 01:13:36;;;;;;;4.07;1.10;;;20.20;99.90;;;;;;5072812;28;20028;-52
2023/09/21 01:16:04;;;;;;;2.50;0.93;;;20.30;99.90;;;;;;5072698;28;20025;-50
2023/09/21 01:18:31;;;;;;;1.27;1.00;;;20.30;99.90;;;;;;5072676;28;20046;-51
2023/09/21 01:21:00;;;;;;;4.63;1.08;;;20.30;99.90;;;;;;5072657;28;20051;-48
2023/09/21 01:23:45;;;;;;;1.20;1.10;;;20.30;99.90;;;;;;5074966;28;20020;-51
2023/09/21 01:26:15;;;;;;;2.90;1.30;;;20.30;99.90;;;;;;5076834;28;20028;-50
2023/09/21 01:28:41;;;;;;;1.50;1.02;;;20.30;99.90;;;;;;5077044;28;20024;-51
2023/09/21 01:31:09;;;;;;;2.38;1.05;;;20.30;99.90;;;;;;5076745;28;20024;-50
2023/09/21 01:33:35;;;;;;;2.80;1.25;;;20.30;99.90;;;;;;5076680;28;20024;-50
2023/09/21 01:36:01;;;;;;;2.03;1.73;;;20.30;99.90;;;;;;5076669;28;20036;-49
2023/09/21 01:38:27;;;;;;;3.30;1.20;;;20.30;99.90;;;;;;5076568;28;20064;-37
2023/09/21 01:40:53;;;;;;;2.58;1.80;;;20.30;99.90;;;;;;5076618;28;20028;-36
2023/09/21 01:43:19;;;;;;;1.33;1.00;;;20.30;99.90;;;;;;5075164;28;20023;-36
2023/09/21 01:45:50;;;;;;;3.25;0.90;;;20.20;99.90;;;;;;5076667;28;20047;-36
2023/09/21 01:48:18;;;;;;;1.15;0.90;;;20.20;99.90;;;;;;5076667;28;20029;-37
2023/09/21 01:50:47;;;;;;;3.00;1.30;;;20.20;99.90;;;;;;5076353;28;20397;-35
2023/09/21 01:53:14;;;;;;;4.80;1.25;;;20.20;99.90;;;;;;5076069;28;20048;-35
2023/09/21 01:55:40;;;;;;;1.75;1.20;;;20.20;99.90;;;;;;5076269;28;20024;-36
2023/09/21 01:58:09;;;;;;;1.15;1.10;;;20.10;99.90;;;;;;5076488;28;20048;-37
2023/09/21 02:00:39;;;;;;;1.58;1.40;;;20.10;99.90;;;;;;5075977;28;20420;-36
2023/09/21 02:03:09;;;;;;;3.28;1.30;;;20.20;99.90;;;;;;5076309;28;20114;-36
2023/09/21 02:05:36;;;;;;;1.13;1.02;;;20.20;99.90;;;;;;5076269;28;20078;-37
2023/09/21 02:08:07;;;;;;;1.48;0.80;;;20.10;99.90;;;;;;5076039;28;20056;-36
2023/09/21 02:10:36;;;;;;;3.70;1.15;;;20.10;99.90;;;;;;5075983;28;20029;-36
2023/09/21 02:13:05;;;;;;;2.90;1.13;;;20.10;99.90;;;;;;5074570;28;20027;-36
2023/09/21 02:15:34;;;;;;;1.75;1.20;;;20.10;99.90;;;;;;5075716;28;20539;-35
2023/09/21 02:18:02;;;;;;;1.50;1.17;;;20.10;99.90;;;;;;5075995;28;20500;-36
2023/09/21 02:20:32;;;;;;;1.80;1.00;;;20.10;99.90;;;;;;5075892;28;20541;-35
2023/09/21 02:23:00;;;;;;;1.02;0.98;;;20.20;99.90;;;;;;5075650;28;20105;-36
2023/09/21 02:25:30;;;;;;;2.25;1.27;;;20.10;99.90;;;;;;5075844;28;20112;-36
2023/09/21 02:27:56;;;;;;;1.50;1.40;;;20.10;99.90;;;;;;5075577;28;20542;-36
2023/09/21 02:30:22;;;;;;;1.85;0.90;;;20.20;99.90;;;;;;5074319;28;20056;-37
2023/09/21 02:32:49;;;;;;;2.78;1.05;;;20.20;99.90;;;;;;5075777;28;20086;-36
2023/09/21 02:35:25;;;;;;;3.35;1.30;;;20.20;99.90;;;;;;5075508;28;20028;-36
2023/09/21 02:37:52;;;;;;;3.22;0.93;;;20.30;99.90;;;;;;5075780;28;20024;-37
2023/09/21 02:40:19;;;;;;;2.45;1.17;;;20.30;99.90;;;;;;5075396;28;20024;-36
2023/09/21 02:42:53;;;;;;;5.47;1.45;;;20.30;99.90;;;;;;5075226;28;20411;-36
2023/09/21 02:45:24;;;;;;;2.67;1.25;;;20.30;99.90;;;;;;5075609;28;20100;-37
2023/09/21 02:47:51;;;;;;;2.17;1.20;;;20.30;99.90;;;;;;5075572;28;20515;-35
2023/09/21 02:50:25;;;;;;;3.28;1.00;;;20.30;99.90;;;;;;5075473;28;20562;-36
2023/09/21 02:52:51;;;;;;;2.95;0.90;;;20.30;99.90;;;;;;5075033;28;20032;-35
2023/09/21 02:55:17;;;;;;;3.15;1.30;;;20.30;99.90;;;;;;5075112;28;20477;-39
2023/09/21 02:57:47;;;;;;;3.60;1.03;;;20.30;99.90;;;;;;5075062;28;20029;-36
2023/09/21 03:00:19;;;;;;;4.72;1.30;;;20.30;99.90;;;;;;5073672;28;20275;-36
2023/09/21 03:02:45;;;;;;;5.10;1.45;;;20.30;99.90;;;;;;5074945;28;20370;-37
2023/09/21 03:05:11;;;;;;;1.98;1.27;;;20.40;99.90;;;;;;5074913;28;20131;-36
2023/09/21 03:07:41;;;;;;;1.30;1.10;;;20.30;99.90;;;;;;5074831;28;20032;-36
2023/09/21 03:10:09;;;;;;;3.85;1.40;;;20.30;99.90;;;;;;5075170;28;20117;-36
2023/09/21 03:12:38;;;;;;;4.63;1.17;;;20.30;99.90;;;;;;5074752;28;20032;-37
2023/09/21 03:15:07;;;;;;;5.18;1.48;;;20.30;99.90;;;;;;5074857;28;20036;-38
2023/09/21 03:17:36;;;;;;;1.65;1.30;;;20.30;99.90;;;;;;5074617;28;20024;-36
2023/09/21 03:20:23;;;;;;;1.83;1.00;;;20.40;99.90;;;;;;5074872;28;20025;-36
2023/09/21 03:22:47;;;;;;;1.38;0.90;;;20.40;99.90;;;;;;5074387;28;20036;-36
2023/09/21 03:25:16;;;;;;;1.73;1.50;;;20.40;99.90;;;;;;5074436;28;20086;-37
2023/09/21 03:27:42;;;;;;;2.08;1.13;;;20.40;99.90;;;;;;5074723;28;20500;-36
2023/09/21 03:30:11;;;;;;;3.35;1.17;;;20.40;99.90;;;;;;5074462;28;20075;-37
2023/09/21 03:32:40;;;;;;;2.03;1.40;;;20.40;99.90;;;;;;5074405;28;20040;-38
2023/09/21 03:35:06;;;;;;;2.20;1.17;;;20.30;99.90;;;;;;5072903;28;20034;-36
2023/09/21 03:37:32;;;;;;;4.45;1.25;;;20.30;99.90;;;;;;5074567;28;20035;-36
2023/09/21 03:39:58;;;;;;;2.00;1.25;;;20.30;99.90;;;;;;5072607;28;20493;-37
2023/09/21 03:42:23;;;;;;;1.30;1.15;;;20.30;99.90;;;;;;5074368;28;20021;-36
2023/09/21 03:44:49;;;;;;;3.28;0.85;;;20.30;99.90;;;;;;5074060;28;20054;-37
2023/09/21 03:47:17;;;;;;;3.47;1.10;;;20.30;99.90;;;;;;5073736;28;20028;-37
2023/09/21 03:49:46;;;;;;;3.15;1.52;;;20.30;99.90;;;;;;5074038;28;20503;-37
2023/09/21 03:52:15;;;;;;;1.90;1.10;;;20.30;99.90;;;;;;5073526;28;20489;-37
2023/09/21 03:54:42;;;;;;;1.98;1.00;;;20.20;99.90;;;;;;5056753;28;20032;-37
2023/09/21 03:57:11;;;;;;;1.23;1.02;;;20.20;99.90;;;;;;5074145;28;20056;-37
2023/09/21 03:59:37;;;;;;;3.75;1.20;;;20.20;99.90;;;;;;5074072;28;20020;-36
2023/09/21 04:02:03;;;;;;;3.35;1.35;;;20.30;99.90;;;;;;5073657;28;20090;-37
2023/09/21 04:04:30;;;;;;;3.38;1.50;;;20.30;99.90;;;;;;5073627;28;20024;-36
2023/09/21 04:06:56;;;;;;;1.50;1.10;;;20.30;99.90;;;;;;5074024;28;20358;-37
2023/09/21 04:09:22;;;;;;;4.80;1.63;;;20.30;99.90;;;;;;5073621;28;20549;-37
2023/09/21 04:11:48;;;;;;;2.65;1.05;;;20.30;99.90;;;;;;5072291;28;20064;-36
2023/09/21 04:14:13;;;;;;;6.68;1.50;;;20.30;99.90;;;;;;5073410;28;20059;-36
2023/09/21 04:16:39;;;;;;;0.90;0.82;;;20.30;99.90;;;;;;5073486;28;20556;-36
2023/09/21 04:19:10;;;;;;;2.20;1.08;;;20.30;99.90;;;;;;5073441;28;20508;-36
2023/09/21 04:21:38;;;;;;;1.48;1.05;;;20.30;99.90;;;;;;5073351;28;20024;-35
2023/09/21 04:24:05;;;;;;;2.33;1.17;;;20.20;99.90;;;;;;5073314;28;20053;-37
2023/09/21 04:26:31;;;;;;;1.20;1.10;;;20.20;99.90;;;;;;5073349;28;20039;-35
2023/09/21 04:28:56;;;;;;;1.42;0.95;;;20.20;99.90;;;;;;5073314;28;20024;-37
2023/09/21 04:31:25;;;;;;;3.65;1.38;;;20.20;99.90;;;;;;5073237;28;20077;-37
2023/09/21 04:33:50;;;;;;;1.38;1.13;;;20.10;99.90;;;;;;5073486;28;20025;-37
2023/09/21 04:36:16;;;;;;;2.33;1.25;;;20.00;99.90;;;;;;5073165;28;20025;-36
2023/09/21 04:38:42;;;;;;;2.90;1.70;;;19.90;99.90;;;;;;5073113;28;20051;-36
2023/09/21 04:41:15;;;;;;;2.67;1.55;;;19.90;99.90;;;;;;5072983;28;20020;-36
2023/09/21 04:43:41;;;;;;;2.78;1.15;;;19.80;99.90;;;;;;5073148;28;20032;-36
2023/09/21 04:46:07;;;;;;;3.03;1.35;;;19.70;99.90;;;;;;5073077;28;20062;-36
2023/09/21 04:48:33;;;;;;;1.30;1.20;;;19.60;99.90;;;;;;5073001;28;20020;-37
2023/09/21 04:50:59;;;;;;;5.13;1.40;;;19.50;99.90;;;;;;5073043;28;20024;-36
2023/09/21 04:53:27;;;;;;;4.30;1.23;;;19.40;99.90;;;;;;5071454;28;20497;-37
2023/09/21 04:55:52;;;;;;;3.03;1.25;;;19.30;99.90;;;;;;5072921;28;20024;-36
2023/09/21 04:58:20;;;;;;;1.98;1.25;;;19.30;99.90;;;;;;5071615;28;20370;-37
2023/09/21 05:00:45;;;;;;;2.22;1.58;;;19.30;99.90;;;;;;5071582;28;20029;-36
2023/09/21 05:03:11;;;;;;;0.95;0.93;;;19.30;99.90;;;;;;5072931;28;20029;-36
2023/09/21 05:05:37;;;;;;;1.40;1.00;;;19.20;99.90;;;;;;5071566;28;20441;-35
2023/09/21 05:08:03;;;;;;;2.40;1.48;;;19.20;99.90;;;;;;5072778;28;20487;-37
2023/09/21 05:10:30;;;;;;;2.30;1.40;;;19.10;99.90;;;;;;5071486;28;20059;-37
2023/09/21 05:12:57;;;;;;;2.65;1.27;;;19.10;99.90;;;;;;5072785;28;20469;-36
2023/09/21 05:15:26;;;;;;;2.72;1.50;;;19.00;99.90;;;;;;5072884;28;20021;-35
2023/09/21 05:17:51;;;;;;;2.47;1.30;;;19.00;99.90;;;;;;5072733;28;20488;-35
2023/09/21 05:20:17;;;;;;;3.20;1.20;;;19.00;99.90;;;;;;5072717;28;20048;-37
2023/09/21 05:22:43;;;;;;;3.63;1.45;;;18.90;99.90;;;;;;5072399;28;20039;-36
2023/09/21 05:25:09;;;;;;;4.40;1.50;;;18.80;99.90;;;;;;5072404;28;20027;-36
2023/09/21 05:27:39;;;;;;;2.15;1.20;;;18.70;99.90;;;;;;5072724;28;20070;-37
2023/09/21 05:30:05;;;;;;;1.90;1.48;;;18.70;99.90;;;;;;5072585;28;20385;-36
2023/09/21 05:32:32;;;;;;;2.63;1.52;;;18.60;99.90;;;;;;5072593;28;20093;-36
2023/09/21 05:34:59;;;;;;;2.50;1.42;;;18.60;99.90;;;;;;5072268;28;20021;-37
2023/09/21 05:37:24;;;;;;;2.03;1.20;;;18.50;99.90;;;;;;5072295;28;20381;-38
2023/09/21 05:39:51;;;;;;;3.63;1.40;;;18.40;99.90;;;;;;5072296;28;20025;-37
2023/09/21 05:42:17;;;;;;;1.67;1.42;;;18.30;99.90;;;;;;5072574;28;20055;-36
2023/09/21 05:44:43;;;;;;;2.50;1.00;;;18.20;99.90;;;;;;5071107;28;20051;-37
2023/09/21 05:47:09;;;;;;;4.30;1.50;;;18.20;99.90;;;;;;5071251;28;20025;-38
2023/09/21 05:49:37;;;;;;;5.55;1.55;;;18.20;99.90;;;;;;5072364;28;20543;-36
2023/09/21 05:52:08;;;;;;;4.03;2.15;;;18.10;99.90;;;;;;5072168;28;20109;-36
2023/09/21 05:54:35;;;;;;;2.00;1.35;;;18.10;99.90;;;;;;5072286;28;20056;-37
2023/09/21 05:57:00;;;;;;;4.32;1.27;;;18.10;99.90;;;;;;5072631;28;20028;-37
2023/09/21 05:59:27;;;;;;;2.25;1.42;;;18.00;99.90;;;;;;5072296;28;20424;-35
2023/09/21 06:01:53;;;;;;;4.00;1.77;;;18.00;99.90;;;;;;5072184;28;20036;-37
2023/09/21 06:04:21;;;;;;;3.30;1.80;;;17.90;99.90;;;;;;5070954;28;20012;-36
2023/09/21 06:06:47;;;;;;;;;;;17.80;99.90;;;;;;5072913;28;20017;-37
2023/09/21 06:09:19;;;;;;;2.97;1.50;;;17.80;99.90;;;;;;5073877;28;19909;-36
2023/09/21 06:11:45;;;;;;;1.73;1.33;;;17.80;99.90;;;;;;5075878;28;20024;-36
2023/09/21 06:14:11;;;;;;;4.43;1.30;;;17.80;99.90;;;;;;5075786;28;20075;-35
2023/09/21 06:16:37;;;;;;;3.33;2.00;;;17.80;99.90;;;;;;5075810;28;20028;-36
2023/09/21 06:19:02;;;;;;;5.78;1.77;;;17.70;99.90;;;;;;5075830;28;20029;-35
2023/09/21 06:21:30;;;;;;;3.40;1.50;;;17.70;99.90;;;;;;5075764;28;20028;-35
2023/09/21 06:23:56;;;;;;;3.95;1.63;;;17.70;99.90;;;;;;5075622;28;20027;-35
2023/09/21 06:26:22;;;;;;;2.30;1.50;;;17.60;99.90;;;;;;5074616;28;20471;-35
2023/09/21 06:28:48;;;;;;;9.27;2.33;;;17.60;99.90;;;;;;5074317;28;20059;-36
2023/09/21 06:31:14;;;;;;;1.48;1.00;;;17.40;99.90;;;;;;5074305;28;20056;-35
2023/09/21 06:33:40;;;;;;;2.20;0.40;;;17.10;99.90;;;;;;5075526;28;20020;-35
2023/09/21 06:36:14;;;;;;;3.22;0.60;;;16.50;99.90;;;;;;5075471;28;20028;-33
2023/09/21 06:38:42;;;;;;;1.70;0.60;;;15.80;99.90;;;;;;5075551;28;20033;-34
2023/09/21 06:41:08;;;;;;;0.65;0.40;;;15.40;99.90;;;;;;5075342;28;20051;-34
2023/09/21 06:43:36;;;;;;;1.90;0.60;;;15.20;99.90;;;;;;5075294;28;20021;-34
2023/09/21 06:46:01;;;;;;;;;;;15.00;99.90;;;;;;5075696;28;20139;-35
2023/09/21 06:48:27;;;;;;;0.60;0.45;;;14.80;99.90;;;;;;5075307;28;19961;-35
2023/09/21 06:50:53;;;;;;;2.40;0.70;;;14.60;99.90;;;;;;5075482;28;20107;-36
2023/09/21 06:53:19;;;;;;;3.38;1.10;;;14.50;99.90;;;;;;5074934;28;20133;-35
2023/09/21 06:55:44;;;;;;;2.50;0.80;;;14.40;99.90;;;;;;5075363;28;20028;-35
2023/09/21 06:58:10;;;;;;;0.65;0.60;;;14.40;99.90;;;;;;5075116;28;20025;-34
2023/09/21 07:00:37;;;;;;;1.35;0.60;;;14.50;99.90;;;;;;5075195;28;20025;-34
2023/09/21 07:03:03;;;;;;;1.25;0.50;;;14.60;99.90;;;;;;5073640;28;20504;-34
2023/09/21 07:05:29;;;;;;;1.45;0.52;;;14.70;99.90;;;;;;5075164;28;20047;-34
2023/09/21 07:07:54;;;;;;;3.13;0.60;;;14.70;99.90;;;;;;5074807;28;20020;-34
2023/09/21 07:10:20;;;;;;;2.78;0.80;;;14.80;99.90;;;;;;5074799;28;20074;-35
2023/09/21 07:12:46;;;;;;;2.30;0.73;;;14.90;99.90;;;;;;5074779;28;20097;-35
2023/09/21 07:15:12;;;;;;;2.50;0.75;;;15.00;99.90;;;;;;5073697;28;20111;-36
2023/09/21 07:17:37;;;;;;;1.10;0.60;;;15.00;99.90;;;;;;5074630;28;20341;-35
2023/09/21 07:20:05;;;;;;;3.45;0.80;;;15.10;99.90;;;;;;5073897;28;20090;-35
2023/09/21 07:22:30;;;;;;;2.95;0.80;;;15.10;99.90;;;;;;5074501;28;20021;-35
2023/09/21 07:24:56;;;;;;;1.77;0.73;;;15.10;99.90;;;;;;5074549;28;20362;-35
2023/09/21 07:27:22;;;;;;;4.72;0.73;;;15.10;99.90;;;;;;5074527;28;20103;-35
2023/09/21 07:29:47;;;;;;;4.60;0.90;;;15.10;99.90;;;;;;5074743;28;20529;-35
2023/09/21 07:32:13;;;;;;;1.92;0.82;;;15.10;99.90;;;;;;5074311;28;20507;-35
2023/09/21 07:34:38;;;;;;;2.22;0.80;;;15.10;99.90;;;;;;5074415;28;20036;-35
2023/09/21 07:37:04;;;;;;;0.93;0.85;;;15.10;99.90;;;;;;5074330;28;20537;-36
2023/09/21 07:39:30;;;;;;;1.70;1.10;;;15.20;99.90;;;;;;5074306;28;20148;-35
2023/09/21 07:41:56;;;;;;;0.65;0.55;;;15.30;99.90;;;;;;5074172;28;20405;-34
2023/09/21 07:44:22;;;;;;;3.65;0.80;;;15.30;99.90;;;;;;5074141;28;20028;-34
2023/09/21 07:46:50;;;;;;;3.38;0.70;;;15.30;99.90;;;;;;5074153;28;20016;-36
2023/09/21 07:49:17;;;;;;;5.18;0.68;;;15.30;99.90;;;;;;5073951;28;20052;-35
2023/09/21 07:51:43;;;;;;;1.13;0.55;;;15.40;99.90;;;;;;5073863;28;20392;-35
2023/09/21 07:54:09;;;;;;;1.23;0.70;;;15.40;99.90;;;;;;5074006;28;20103;-36
2023/09/21 07:56:36;;;;;;;2.13;0.68;;;15.50;99.90;;;;;;5073887;28;20097;-36
2023/09/21 07:59:02;;;;;;;0.52;0.52;;;15.50;99.90;;;;;;5073792;28;20029;-35
2023/09/21 08:01:28;;;;;;;0.82;0.50;;;15.60;99.90;;;;;;5074012;28;20508;-35
2023/09/21 08:03:54;;;;;;;4.88;0.98;;;15.60;99.90;;;;;;5073852;28;20021;-35
2023/09/21 08:06:21;;;;;;;1.35;1.20;;;15.60;99.90;;;;;;5073767;28;20025;-36
2023/09/21 08:08:47;;;;;;;3.13;0.80;;;15.70;99.90;;;;;;5073762;28;20025;-35
2023/09/21 08:11:13;;;;;;;1.55;0.60;;;15.70;99.90;;;;;;5073891;28;20465;-36
2023/09/21 08:13:39;;;;;;;1.50;0.45;;;15.70;99.90;;;;;;5073933;28;20036;-36
2023/09/21 08:16:08;;;;;;;1.13;0.55;;;15.70;99.90;;;;;;5073737;28;20549;-36
2023/09/21 08:18:36;;;;;;;2.70;0.60;;;15.70;99.90;;;;;;5073480;28;20032;-35
2023/09/21 08:21:05;;;;;;;1.10;0.85;;;15.70;99.90;;;;;;5073707;28;20519;-36
2023/09/21 08:23:31;;;;;;;0.60;0.40;;;15.70;99.90;;;;;;5072524;28;20048;-36
2023/09/21 08:25:58;;;;;;;0.90;0.60;;;15.70;99.90;;;;;;5073187;28;20025;-35
2023/09/21 08:28:24;;;;;;;1.02;0.50;;;15.70;99.90;;;;;;5073653;28;20385;-36
2023/09/21 08:30:50;;;;;;;4.90;0.60;;;15.70;99.90;;;;;;5073302;28;20027;-35
2023/09/21 08:33:17;;;;;;;3.67;0.80;;;15.80;99.90;;;;;;5073003;28;20028;-36
2023/09/21 08:35:43;;;;;;;0.83;0.67;;;15.80;99.90;;;;;;5073221;28;20508;-36
2023/09/21 08:38:09;;;;;;;0.82;0.55;;;15.80;99.90;;;;;;5073218;28;20025;-36
2023/09/21 08:40:37;;;;;;;1.05;0.80;;;15.80;99.90;;;;;;5073150;28;20481;-35
2023/09/21 08:43:04;;;;;;;2.05;0.50;;;15.90;99.90;;;;;;5073066;28;20063;-37
2023/09/21 08:45:30;;;;;;;5.45;1.15;;;15.90;99.90;;;;;;5073085;28;20039;-35
2023/09/21 08:47:56;;;;;;;3.22;1.30;;;15.80;99.90;;;;;;5073346;28;20374;-35
2023/09/21 08:50:24;;;;;;;4.72;0.95;;;15.80;99.90;;;;;;5073306;28;20028;-35
2023/09/21 08:52:53;;;;;;;2.33;0.90;;;15.80;99.90;;;;;;5072752;28;20119;-36
2023/09/21 08:55:24;;;;;;;2.13;0.95;;;15.90;99.90;;;;;;5072983;28;20025;-36
2023/09/21 08:57:50;;;;;;;1.90;0.70;;;15.90;99.90;;;;;;5073003;28;20028;-35
2023/09/21 09:00:16;;;;;;;4.07;0.70;;;15.90;99.90;;;;;;5072862;28;20025;-35
2023/09/21 09:02:42;;;;;;;2.28;1.30;;;15.90;99.90;;;;;;5072827;28;20116;-36
2023/09/21 09:05:09;;;;;;;1.25;0.65;;;15.80;99.90;;;;;;5072886;28;20060;-35
2023/09/21 09:07:39;;;;;;;0.95;0.70;;;15.80;99.90;;;;;;5072817;28;20495;-36
2023/09/21 09:10:06;;;;;;;4.93;1.00;;;15.90;99.90;;;;;;5072811;28;20385;-35
2023/09/21 09:12:32;;;;;;;4.88;0.85;;;15.80;99.90;;;;;;5072780;28;20123;-35
2023/09/21 09:15:02;;;;;;;2.10;0.90;;;15.80;99.90;;;;;;5072614;28;20024;-35
2023/09/21 09:17:32;;;;;;;3.60;1.10;;;15.80;99.90;;;;;;5072675;28;20031;-34
2023/09/21 09:20:02;;;;;;;1.42;1.05;;;15.80;99.90;;;;;;5073049;28;20467;-53
2023/09/21 09:22:28;;;;;;;4.35;1.23;;;15.80;99.90;;;;;;5072864;28;20380;-50
2023/09/21 09:24:56;;;;;;;3.20;0.80;;;15.80;99.90;;;;;;5072868;28;20503;-48
2023/09/21 09:27:21;;;;;;;2.33;0.98;;;15.70;99.90;;;;;;5071424;28;20033;-51
2023/09/21 09:29:54;;;;;;;3.22;1.10;;;15.70;99.90;;;;;;5072559;28;20040;-49
2023/09/21 09:32:19;;;;;;;2.33;1.38;;;15.70;99.90;;;;;;5072851;28;20394;-48
2023/09/21 09:34:47;;;;;;;1.33;1.00;;;15.70;99.90;;;;;;5072872;28;20033;-51
2023/09/21 09:37:15;;;;;;;1.38;0.70;;;15.60;99.90;;;;;;5072468;28;20028;-49
2023/09/21 09:39:42;;;;;;;6.45;1.00;;;15.60;99.90;;;;;;5072541;28;20514;-51
2023/09/21 09:42:09;;;;;;;1.35;0.70;;;15.60;99.90;;;;;;5071026;28;20028;-49
2023/09/21 09:44:44;;;;;;;2.05;0.70;;;15.60;99.90;;;;;;5074941;28;20031;-48
2023/09/21 09:47:12;;;;;;;2.25;0.68;;;15.60;99.90;;;;;;5076728;28;20024;-44
2023/09/21 09:49:41;;;;;;;1.23;0.90;;;15.50;99.90;;;;;;5076311;28;20032;-50
2023/09/21 09:52:10;;;;;;;0.85;0.45;;;15.40;99.90;;;;;;5076138;28;20109;-46
2023/09/21 09:54:36;;;;;;;2.00;0.70;;;15.40;99.90;;;;;;5075065;28;20477;-47
2023/09/21 09:57:11;;;;;;;0.93;0.63;;;15.40;99.90;;;;;;5074910;28;20052;-46
2023/09/21 09:59:36;;;;;;;1.90;0.95;;;15.40;99.90;;;;;;5076223;28;20499;-49
2023/09/21 10:02:07;;;;;;;1.60;0.90;;;15.40;99.90;;;;;;5076086;28;20111;-51
2023/09/21 10:04:36;;;;;;;3.40;0.85;;;15.40;99.90;;;;;;5076431;28;20036;-45
2023/09/21 10:07:04;;;;;;;2.50;0.90;;;15.40;99.90;;;;;;5076026;28;20104;-48
2023/09/21 10:09:31;;;;;;;2.33;0.95;;;15.40;99.90;;;;;;5076301;28;20078;-47
2023/09/21 10:11:58;;;;;;;5.18;0.95;;;15.40;99.90;;;;;;5075927;28;20021;-48
2023/09/21 10:14:24;;;;;;;1.33;0.70;;;15.40;99.90;;;;;;5076076;28;20024;-46
2023/09/21 10:16:54;;;;;;;2.65;0.75;;;15.40;99.90;;;;;;5076186;28;20090;-48
2023/09/21 10:19:28;;;;;;;4.40;1.08;;;15.40;99.90;;;;;;5075827;28;20152;-50
2023/09/21 10:21:56;;;;;;;1.48;0.77;;;15.40;99.90;;;;;;5076026;28;20025;-48
2023/09/21 10:24:26;;;;;;;1.10;0.82;;;15.40;99.90;;;;;;5075631;28;20024;-48
2023/09/21 10:26:53;;;;;;;5.47;1.17;;;15.40;99.90;;;;;;5075980;28;20377;-49
2023/09/21 10:29:20;;;;;;;1.83;1.02;;;15.50;99.90;;;;;;5075672;28;20031;-48
2023/09/21 10:31:54;;;;;;;2.75;0.98;;;15.50;99.90;;;;;;5075876;28;20024;-48
2023/09/21 10:34:22;;;;;;;2.60;0.77;;;15.50;99.90;;;;;;5075634;28;20539;-49
2023/09/21 10:36:56;;;;;;;2.70;1.23;;;15.50;99.90;;;;;;5075504;28;20090;-44
2023/09/21 10:39:26;;;;;;;2.13;0.70;;;15.50;99.90;;;;;;5075767;28;20055;-44
2023/09/21 10:42:05;;;;;;;1.02;0.60;;;15.50;99.90;;;;;;5075386;28;20105;-48
2023/09/21 10:45:03;;;;;;;7.93;0.60;;;15.60;99.90;;;;;;5075401;28;20056;-47
2023/09/21 10:47:51;;;;;;;2.15;0.95;;;15.60;99.90;;;;;;5075503;28;20504;-47
2023/09/21 10:50:21;;;;;;;1.05;0.80;;;15.50;99.90;;;;;;5075259;28;20069;-47
2023/09/21 10:52:50;;;;;;;2.15;0.70;;;15.50;99.90;;;;;;5075162;28;20048;-46
2023/09/21 10:55:17;;;;;;;3.03;0.80;;;15.50;99.90;;;;;;5075045;28;20473;-47
2023/09/21 10:57:44;;;;;;;3.35;1.02;;;15.50;99.90;;;;;;5075164;28;20029;-43
2023/09/21 11:00:20;;;;;;;1.02;0.77;;;15.50;99.90;;;;;;5075139;28;20163;-47
2023/09/21 11:02:47;;;;;;;2.63;0.70;;;15.60;99.90;;;;;;5074951;28;20113;-49
2023/09/21 11:05:17;;;;;;;0.55;0.55;;;15.50;99.90;;;;;;5074849;28;20024;-49
2023/09/21 11:07:47;;;;;;;2.70;0.70;;;15.60;99.90;;;;;;5075172;28;20401;-45
2023/09/21 11:10:14;;;;;;;1.58;0.90;;;15.60;99.90;;;;;;5074953;28;20424;-45
2023/09/21 11:12:40;;;;;;;1.55;0.60;;;15.50;99.90;;;;;;5074802;28;20107;-48
2023/09/21 11:15:12;;;;;;;2.00;0.77;;;15.50;99.90;;;;;;5074650;28;20489;-46
2023/09/21 11:17:41;;;;;;;1.70;0.70;;;15.50;99.90;;;;;;5074743;28;20063;-47
2023/09/21 11:20:08;;;;;;;2.15;1.15;;;15.50;99.90;;;;;;5073417;28;20036;-44
2023/09/21 11:22:34;;;;;;;5.13;1.00;;;15.50;99.90;;;;;;5074660;28;20021;-45
2023/09/21 11:25:00;;;;;;;1.80;1.02;;;15.60;99.90;;;;;;5074505;28;20265;-46
2023/09/21 11:27:28;;;;;;;1.20;0.93;;;15.60;99.90;;;;;;5074599;28;20452;-44
2023/09/21 11:29:53;;;;;;;0.80;0.40;;;15.60;99.90;;;;;;5074792;28;20477;-43
2023/09/21 11:32:22;;;;;;;0.93;0.65;;;15.60;99.90;;;;;;5074447;28;20077;-49
2023/09/21 11:34:47;;;;;;;1.10;0.57;;;15.60;99.90;;;;;;5073164;28;20024;-46
2023/09/21 11:37:14;;;;;;;0.80;0.65;;;15.60;99.90;;;;;;5074388;28;20477;-42
2023/09/21 11:39:42;;;;;;;0.63;0.63;;;15.60;99.90;;;;;;5074368;28;20032;-46
2023/09/21 11:42:10;;;;;;;2.05;1.10;;;15.60;99.90;;;;;;5074260;28;20163;-48
2023/09/21 11:44:37;;;;;;;0.77;0.70;;;15.60;99.90;;;;;;5074281;28;20017;-50
2023/09/21 11:47:07;;;;;;;1.17;0.40;;;15.70;99.90;;;;;;5074490;28;20513;-46
2023/09/21 11:49:43;;;;;;;0.57;0.55;;;15.50;99.90;;;;;;5074432;28;20254;-50
2023/09/21 11:52:10;;;;;;;1.40;0.60;;;15.50;99.90;;;;;;5074109;28;20521;-50
2023/09/21 11:54:40;;;;;;;1.83;0.65;;;15.50;99.90;;;;;;5074404;28;20487;-51
2023/09/21 11:57:09;;;;;;;1.60;0.68;;;15.40;99.90;;;;;;5072797;28;20036;-50
2023/09/21 11:59:39;;;;;;;1.40;0.75;;;15.40;99.90;;;;;;5074233;28;20133;-46
2023/09/21 12:02:09;;;;;;;0.80;0.60;;;15.40;99.90;;;;;;5073856;28;20435;-49
2023/09/21 12:04:37;;;;;;;1.08;0.77;;;15.40;99.90;;;;;;5074238;28;20025;-43
2023/09/21 12:07:04;;;;;;;;;;;15.40;99.90;;;;;;5073602;28;20033;-48
2023/09/21 12:09:29;;;;;;;0.95;0.82;;;15.40;99.90;;;;;;5074055;28;19908;-47
2023/09/21 12:11:55;;;;;;;2.53;1.10;;;15.40;99.90;;;;;;5073589;28;20046;-45
2023/09/21 12:14:24;;;;;;;1.67;0.82;;;15.50;99.90;;;;;;5073740;28;20503;-43
2023/09/21 12:16:53;;;;;;;1.40;1.00;;;15.50;99.90;;;;;;5073814;28;20028;-50
2023/09/21 12:19:19;;;;;;;2.55;0.85;;;15.50;99.90;;;;;;5072195;28;20040;-49
2023/09/21 12:21:47;;;;;;;0.60;0.50;;;15.50;99.90;;;;;;5073466;28;20532;-44
2023/09/21 12:24:13;;;;;;;0.70;0.70;;;15.50;99.90;;;;;;5073610;28;20039;-48
2023/09/21 12:26:41;;;;;;;1.85;0.70;;;15.50;99.90;;;;;;5073406;28;20024;-44
2023/09/21 12:29:08;;;;;;;0.57;0.57;;;15.50;99.90;;;;;;5073657;28;20104;-45
2023/09/21 12:31:35;;;;;;;0.93;0.80;;;15.50;99.90;;;;;;5073309;28;20025;-46
2023/09/21 12:34:02;;;;;;;1.45;0.73;;;15.50;99.90;;;;;;5073559;28;20054;-50
2023/09/21 12:36:28;;;;;;;1.38;1.05;;;15.50;99.90;;;;;;5073290;28;20024;-50
2023/09/21 12:38:54;;;;;;;2.10;1.00;;;15.50;99.90;;;;;;5073400;28;20028;-43
2023/09/21 12:41:20;;;;;;;6.03;0.80;;;15.60;99.90;;;;;;5073119;28;20107;-46
2023/09/21 12:43:46;;;;;;;3.85;0.77;;;15.60;99.90;;;;;;5073122;28;20166;-46
2023/09/21 12:46:12;;;;;;;2.83;0.90;;;15.70;99.90;;;;;;5073196;28;20033;-48
2023/09/21 12:48:38;;;;;;;2.60;0.77;;;15.80;99.90;;;;;;5073392;28;20477;-47
2023/09/21 12:51:04;;;;;;;2.72;0.90;;;15.70;99.90;;;;;;5073023;28;20035;-45